sensor_id;sensor_type;location;lat;lon;timestamp;pressure;altitude;pressure_sealevel;temperature;humidity
41040;BME280;48586;50.122;18.972;2023-03-31T00:00:53;97779.34;;;8.83;85.89
41040;BME280;48586;50.122;18.972;2023-03-31T00:03:02;97782.00;;;8.83;85.94
41040;BME280;48586;50.122;18.972;2023-03-31T00:05:10;97781.53;;;8.86;85.62
41040;BME280;48586;50.122;18.972;2023-03-31T00:07:20;97781.75;;;8.85;85.55
41040;BME280;48586;50.122;18.972;2023-03-31T00:09:25;97779.97;;;8.73;85.61
41040;BME280;48586;50.122;18.972;2023-03-31T00:11:30;97779.63;;;8.70;85.88
41040;BME280;48586;50.122;18.972;2023-03-31T00:13:36;97783.00;;;8.65;86.12
41040;BME280;48586;50.122;18.972;2023-03-31T00:15:42;97778.63;;;8.59;86.17
41040;BME280;48586;50.122;18.972;2023-03-31T00:17:46;97781.19;;;8.54;86.42
41040;BME280;48586;50.122;18.972;2023-03-31T00:19:51;97783.19;;;8.47;86.57
41040;BME280;48586;50.122;18.972;2023-03-31T00:22:01;97780.53;;;8.47;86.68
41040;BME280;48586;50.122;18.972;2023-03-31T00:24:09;97779.38;;;8.43;86.85
41040;BME280;48586;50.122;18.972;2023-03-31T00:26:15;97779.84;;;8.40;86.65
41040;BME280;48586;50.122;18.972;2023-03-31T00:28:21;97778.13;;;8.34;86.92
41040;BME280;48586;50.122;18.972;2023-03-31T00:30:25;97778.84;;;8.29;87.11
41040;BME280;48586;50.122;18.972;2023-03-31T00:32:30;97775.97;;;8.31;87.21
41040;BME280;48586;50.122;18.972;2023-03-31T00:34:36;97775.97;;;8.31;87.18
41040;BME280;48586;50.122;18.972;2023-03-31T00:36:41;97778.38;;;8.32;87.17
41040;BME280;48586;50.122;18.972;2023-03-31T00:38:49;97771.22;;;8.33;86.98
41040;BME280;48586;50.122;18.972;2023-03-31T00:40:58;97776.75;;;8.31;87.05
41040;BME280;48586;50.122;18.972;2023-03-31T00:43:25;97776.31;;;8.34;87.05
41040;BME280;48586;50.122;18.972;2023-03-31T00:45:33;97781.59;;;8.34;87.02
41040;BME280;48586;50.122;18.972;2023-03-31T00:47:40;97769.94;;;8.35;86.78
41040;BME280;48586;50.122;18.972;2023-03-31T00:49:50;97772.13;;;8.38;86.98
41040;BME280;48586;50.122;18.972;2023-03-31T00:52:04;97771.19;;;8.44;86.51
41040;BME280;48586;50.122;18.972;2023-03-31T00:54:14;97769.91;;;8.47;86.30
41040;BME280;48586;50.122;18.972;2023-03-31T00:56:23;97775.78;;;8.49;86.35
41040;BME280;48586;50.122;18.972;2023-03-31T00:58:32;97774.28;;;8.53;86.20
41040;BME280;48586;50.122;18.972;2023-03-31T01:00:45;97782.31;;;8.58;86.15
41040;BME280;48586;50.122;18.972;2023-03-31T01:02:55;97774.94;;;8.60;85.58
41040;BME280;48586;50.122;18.972;2023-03-31T01:05:04;97775.75;;;8.61;85.88
41040;BME280;48586;50.122;18.972;2023-03-31T01:07:19;97776.56;;;8.61;85.49
41040;BME280;48586;50.122;18.972;2023-03-31T01:09:30;97775.50;;;8.62;85.53
41040;BME280;48586;50.122;18.972;2023-03-31T01:11:44;97769.13;;;8.63;85.52
41040;BME280;48586;50.122;18.972;2023-03-31T01:13:54;97764.63;;;8.64;85.26
41040;BME280;48586;50.122;18.972;2023-03-31T01:16:02;97762.81;;;8.64;85.36
41040;BME280;48586;50.122;18.972;2023-03-31T01:18:08;97761.75;;;8.65;85.37
41040;BME280;48586;50.122;18.972;2023-03-31T01:20:25;97760.63;;;8.61;85.07
41040;BME280;48586;50.122;18.972;2023-03-31T01:28:54;97760.84;;;8.60;85.45
41040;BME280;48586;50.122;18.972;2023-03-31T01:31:39;97755.06;;;8.63;85.23
41040;BME280;48586;50.122;18.972;2023-03-31T01:40:44;97760.16;;;8.64;85.07
41040;BME280;48586;50.122;18.972;2023-03-31T01:43:21;97760.72;;;8.66;85.31
41040;BME280;48586;50.122;18.972;2023-03-31T01:45:40;97760.47;;;8.68;85.09
41040;BME280;48586;50.122;18.972;2023-03-31T01:47:58;97766.34;;;8.70;85.00
41040;BME280;48586;50.122;18.972;2023-03-31T01:50:19;97754.34;;;8.67;84.91
41040;BME280;48586;50.122;18.972;2023-03-31T01:52:39;97765.47;;;8.64;85.13
41040;BME280;48586;50.122;18.972;2023-03-31T01:54:55;97754.97;;;8.58;85.12
41040;BME280;48586;50.122;18.972;2023-03-31T01:57:17;97756.75;;;8.52;85.17
41040;BME280;48586;50.122;18.972;2023-03-31T01:59:30;97760.41;;;8.51;85.49
41040;BME280;48586;50.122;18.972;2023-03-31T02:01:48;97747.63;;;8.48;85.26
41040;BME280;48586;50.122;18.972;2023-03-31T02:04:04;97747.63;;;8.48;85.36
41040;BME280;48586;50.122;18.972;2023-03-31T02:06:18;97760.31;;;8.46;85.47
41040;BME280;48586;50.122;18.972;2023-03-31T02:08:31;97759.19;;;8.42;85.43
41040;BME280;48586;50.122;18.972;2023-03-31T02:10:44;97758.38;;;8.41;85.59
41040;BME280;48586;50.122;18.972;2023-03-31T02:12:56;97751.94;;;8.37;85.46
41040;BME280;48586;50.122;18.972;2023-03-31T02:15:08;97757.94;;;8.33;85.72
41040;BME280;48586;50.122;18.972;2023-03-31T02:17:23;97752.63;;;8.33;85.80
41040;BME280;48586;50.122;18.972;2023-03-31T02:19:37;97763.75;;;8.30;85.74
41040;BME280;48586;50.122;18.972;2023-03-31T02:21:47;97751.97;;;8.25;85.76
41040;BME280;48586;50.122;18.972;2023-03-31T02:23:53;97752.28;;;8.29;86.03
41040;BME280;48586;50.122;18.972;2023-03-31T02:26:03;97745.16;;;8.30;85.82
41040;BME280;48586;50.122;18.972;2023-03-31T02:28:20;97738.31;;;8.34;85.84
41040;BME280;48586;50.122;18.972;2023-03-31T02:30:36;97734.16;;;8.38;85.47
41040;BME280;48586;50.122;18.972;2023-03-31T02:32:48;97740.84;;;8.40;85.21
41040;BME280;48586;50.122;18.972;2023-03-31T02:34:53;97744.56;;;8.39;85.06
41040;BME280;48586;50.122;18.972;2023-03-31T02:36:59;97735.28;;;8.42;85.09
41040;BME280;48586;50.122;18.972;2023-03-31T02:39:07;97737.47;;;8.45;85.19
41040;BME280;48586;50.122;18.972;2023-03-31T02:41:15;97740.84;;;8.40;84.94
41040;BME280;48586;50.122;18.972;2023-03-31T02:43:23;97734.03;;;8.44;84.95
41040;BME280;48586;50.122;18.972;2023-03-31T02:45:49;97728.47;;;8.46;84.69
41040;BME280;48586;50.122;18.972;2023-03-31T02:47:54;97726.41;;;8.48;84.61
41040;BME280;48586;50.122;18.972;2023-03-31T02:50:02;97738.63;;;8.49;84.46
41040;BME280;48586;50.122;18.972;2023-03-31T02:52:36;97734.38;;;8.48;84.65
41040;BME280;48586;50.122;18.972;2023-03-31T03:00:43;97732.59;;;8.54;84.32
41040;BME280;48586;50.122;18.972;2023-03-31T03:03:20;97739.19;;;8.51;84.01
41040;BME280;48586;50.122;18.972;2023-03-31T03:05:40;97733.66;;;8.53;84.25
41040;BME280;48586;50.122;18.972;2023-03-31T03:08:22;97735.00;;;8.55;84.31
41040;BME280;48586;50.122;18.972;2023-03-31T03:10:43;97744.81;;;8.55;84.13
41040;BME280;48586;50.122;18.972;2023-03-31T03:13:07;97736.63;;;8.56;84.39
41040;BME280;48586;50.122;18.972;2023-03-31T03:15:27;97735.59;;;8.57;83.96
41040;BME280;48586;50.122;18.972;2023-03-31T03:17:39;97729.81;;;8.60;83.92
41040;BME280;48586;50.122;18.972;2023-03-31T03:19:50;97726.66;;;8.63;83.79
41040;BME280;48586;50.122;18.972;2023-03-31T03:21:57;97733.03;;;8.62;83.87
41040;BME280;48586;50.122;18.972;2023-03-31T03:24:01;97730.63;;;8.61;83.46
41040;BME280;48586;50.122;18.972;2023-03-31T03:26:05;97729.22;;;8.58;83.51
41040;BME280;48586;50.122;18.972;2023-03-31T03:28:10;97722.78;;;8.54;83.47
41040;BME280;48586;50.122;18.972;2023-03-31T03:30:14;97721.66;;;8.50;83.51
41040;BME280;48586;50.122;18.972;2023-03-31T03:32:21;97706.22;;;8.47;83.49
41040;BME280;48586;50.122;18.972;2023-03-31T03:34:26;97714.41;;;8.45;83.69
41040;BME280;48586;50.122;18.972;2023-03-31T03:36:30;97714.56;;;8.39;83.76
41040;BME280;48586;50.122;18.972;2023-03-31T03:38:34;97712.38;;;8.36;83.72
41040;BME280;48586;50.122;18.972;2023-03-31T03:40:39;97705.69;;;8.33;83.72
41040;BME280;48586;50.122;18.972;2023-03-31T03:42:43;97711.47;;;8.30;84.11
41040;BME280;48586;50.122;18.972;2023-03-31T03:44:48;97730.25;;;8.29;83.82
41040;BME280;48586;50.122;18.972;2023-03-31T03:46:52;97713.53;;;8.28;83.96
41040;BME280;48586;50.122;18.972;2023-03-31T03:48:59;97711.13;;;8.27;83.90
41040;BME280;48586;50.122;18.972;2023-03-31T03:51:03;97706.88;;;8.25;84.23
41040;BME280;48586;50.122;18.972;2023-03-31T03:53:08;97703.97;;;8.27;84.07
41040;BME280;48586;50.122;18.972;2023-03-31T03:55:12;97704.78;;;8.28;83.86
41040;BME280;48586;50.122;18.972;2023-03-31T03:57:17;97702.59;;;8.24;83.84
41040;BME280;48586;50.122;18.972;2023-03-31T03:59:22;97700.53;;;8.27;83.71
41040;BME280;48586;50.122;18.972;2023-03-31T04:01:26;97701.78;;;8.24;83.66
41040;BME280;48586;50.122;18.972;2023-03-31T04:03:30;97699.38;;;8.22;83.69
41040;BME280;48586;50.122;18.972;2023-03-31T04:05:38;97701.69;;;8.19;83.96
41040;BME280;48586;50.122;18.972;2023-03-31T04:07:41;97696.63;;;8.17;83.82
41040;BME280;48586;50.122;18.972;2023-03-31T04:09:46;97696.06;;;8.15;83.86
41040;BME280;48586;50.122;18.972;2023-03-31T04:11:50;97697.09;;;8.14;83.96
41040;BME280;48586;50.122;18.972;2023-03-31T04:13:54;97695.97;;;8.10;83.85
41040;BME280;48586;50.122;18.972;2023-03-31T04:15:58;97695.28;;;8.03;84.03
41040;BME280;48586;50.122;18.972;2023-03-31T04:18:03;97694.13;;;7.99;84.32
41040;BME280;48586;50.122;18.972;2023-03-31T04:20:10;97691.72;;;7.97;84.51
41040;BME280;48586;50.122;18.972;2023-03-31T04:22:17;97697.50;;;7.94;84.49
41040;BME280;48586;50.122;18.972;2023-03-31T04:24:22;97685.75;;;7.90;84.62
41040;BME280;48586;50.122;18.972;2023-03-31T04:26:32;97683.59;;;7.87;84.86
41040;BME280;48586;50.122;18.972;2023-03-31T04:28:43;97683.00;;;7.85;84.74
41040;BME280;48586;50.122;18.972;2023-03-31T04:30:51;97683.00;;;7.85;84.81
41040;BME280;48586;50.122;18.972;2023-03-31T04:33:00;97685.88;;;7.84;85.04
41040;BME280;48586;50.122;18.972;2023-03-31T04:35:07;97684.28;;;7.83;84.90
41040;BME280;48586;50.122;18.972;2023-03-31T04:37:18;97681.03;;;7.81;85.13
41040;BME280;48586;50.122;18.972;2023-03-31T04:39:22;97684.50;;;7.81;85.24
41040;BME280;48586;50.122;18.972;2023-03-31T04:41:27;97683.25;;;7.84;85.09
41040;BME280;48586;50.122;18.972;2023-03-31T04:43:31;97677.94;;;7.84;84.99
41040;BME280;48586;50.122;18.972;2023-03-31T04:45:35;97680.13;;;7.87;85.06
41040;BME280;48586;50.122;18.972;2023-03-31T04:47:39;97676.97;;;7.90;84.82
41040;BME280;48586;50.122;18.972;2023-03-31T04:49:44;97662.22;;;7.94;84.60
41040;BME280;48586;50.122;18.972;2023-03-31T04:51:48;97672.13;;;7.98;84.52
41040;BME280;48586;50.122;18.972;2023-03-31T04:53:55;97662.91;;;8.01;84.41
41040;BME280;48586;50.122;18.972;2023-03-31T04:56:01;97669.34;;;8.05;84.45
41040;BME280;48586;50.122;18.972;2023-03-31T04:58:05;97661.72;;;8.09;84.29
41040;BME280;48586;50.122;18.972;2023-03-31T05:00:10;97664.22;;;8.15;84.24
41040;BME280;48586;50.122;18.972;2023-03-31T05:02:16;97657.88;;;8.16;83.96
41040;BME280;48586;50.122;18.972;2023-03-31T05:04:23;97652.34;;;8.18;83.69
41040;BME280;48586;50.122;18.972;2023-03-31T05:06:27;97651.28;;;8.19;83.66
41040;BME280;48586;50.122;18.972;2023-03-31T05:08:32;97651.28;;;8.19;83.34
41040;BME280;48586;50.122;18.972;2023-03-31T05:10:39;97652.56;;;8.16;83.53
41040;BME280;48586;50.122;18.972;2023-03-31T05:12:44;97650.63;;;8.12;83.81
41040;BME280;48586;50.122;18.972;2023-03-31T05:14:51;97655.13;;;8.11;83.89
41040;BME280;48586;50.122;18.972;2023-03-31T05:16:55;97645.81;;;8.09;83.70
41040;BME280;48586;50.122;18.972;2023-03-31T05:19:00;97648.22;;;8.10;83.74
41040;BME280;48586;50.122;18.972;2023-03-31T05:21:10;97649.00;;;8.11;83.74
41040;BME280;48586;50.122;18.972;2023-03-31T05:23:16;97649.09;;;8.16;83.87
41040;BME280;48586;50.122;18.972;2023-03-31T05:25:20;97652.09;;;8.19;83.52
41040;BME280;48586;50.122;18.972;2023-03-31T05:27:27;97647.03;;;8.18;83.55
41040;BME280;48586;50.122;18.972;2023-03-31T05:29:32;97642.78;;;8.17;83.41
41040;BME280;48586;50.122;18.972;2023-03-31T05:31:37;97646.38;;;8.11;83.68
41040;BME280;48586;50.122;18.972;2023-03-31T05:33:42;97637.06;;;8.08;83.90
41040;BME280;48586;50.122;18.972;2023-03-31T05:35:46;97638.41;;;8.11;83.82
41040;BME280;48586;50.122;18.972;2023-03-31T05:37:51;97632.22;;;8.05;83.76
41040;BME280;48586;50.122;18.972;2023-03-31T05:39:57;97637.97;;;8.02;83.74
41040;BME280;48586;50.122;18.972;2023-03-31T05:42:01;97633.84;;;7.94;84.19
41040;BME280;48586;50.122;18.972;2023-03-31T05:44:10;97634.19;;;7.98;84.24
41040;BME280;48586;50.122;18.972;2023-03-31T05:46:15;97627.84;;;7.99;84.31
41040;BME280;48586;50.122;18.972;2023-03-31T05:48:19;97638.56;;;8.04;84.30
41040;BME280;48586;50.122;18.972;2023-03-31T05:50:23;97637.50;;;8.05;84.30
41040;BME280;48586;50.122;18.972;2023-03-31T05:52:28;97641.31;;;8.09;84.32
41040;BME280;48586;50.122;18.972;2023-03-31T05:54:32;97639.78;;;8.13;83.95
41040;BME280;48586;50.122;18.972;2023-03-31T05:56:37;97635.63;;;8.17;84.15
41040;BME280;48586;50.122;18.972;2023-03-31T05:58:42;97629.59;;;8.22;83.88
41040;BME280;48586;50.122;18.972;2023-03-31T06:00:48;97643.19;;;8.25;83.76
41040;BME280;48586;50.122;18.972;2023-03-31T06:02:53;97637.91;;;8.25;83.53
41040;BME280;48586;50.122;18.972;2023-03-31T06:04:59;97635.25;;;8.25;83.31
41040;BME280;48586;50.122;18.972;2023-03-31T06:07:03;97637.47;;;8.34;83.38
41040;BME280;48586;50.122;18.972;2023-03-31T06:09:08;97630.66;;;8.38;83.06
41040;BME280;48586;50.122;18.972;2023-03-31T06:11:15;97628.66;;;8.45;83.30
41040;BME280;48586;50.122;18.972;2023-03-31T06:13:22;97635.09;;;8.49;82.79
41040;BME280;48586;50.122;18.972;2023-03-31T06:15:27;97635.44;;;8.53;82.73
41040;BME280;48586;50.122;18.972;2023-03-31T06:17:36;97633.66;;;8.58;82.31
41040;BME280;48586;50.122;18.972;2023-03-31T06:19:40;97630.06;;;8.64;82.09
41040;BME280;48586;50.122;18.972;2023-03-31T06:21:45;97631.16;;;8.68;81.87
41040;BME280;48586;50.122;18.972;2023-03-31T06:23:49;97627.63;;;8.80;82.03
41040;BME280;48586;50.122;18.972;2023-03-31T06:26:00;97628.84;;;8.89;81.12
41040;BME280;48586;50.122;18.972;2023-03-31T06:28:07;97633.75;;;8.97;81.04
41040;BME280;48586;50.122;18.972;2023-03-31T06:30:13;97627.59;;;9.08;81.02
41040;BME280;48586;50.122;18.972;2023-03-31T06:32:19;97621.59;;;9.18;80.70
41040;BME280;48586;50.122;18.972;2023-03-31T06:34:26;97629.69;;;9.28;79.91
41040;BME280;48586;50.122;18.972;2023-03-31T06:36:32;97631.63;;;9.33;78.85
41040;BME280;48586;50.122;18.972;2023-03-31T06:38:37;97621.88;;;9.38;78.89
41040;BME280;48586;50.122;18.972;2023-03-31T06:40:43;97624.94;;;9.47;78.52
41040;BME280;48586;50.122;18.972;2023-03-31T06:42:49;97619.41;;;9.54;77.76
41040;BME280;48586;50.122;18.972;2023-03-31T06:44:53;97614.47;;;9.62;77.81
41040;BME280;48586;50.122;18.972;2023-03-31T06:46:59;97617.56;;;9.76;77.64
41040;BME280;48586;50.122;18.972;2023-03-31T06:49:04;97613.16;;;9.87;77.76
41040;BME280;48586;50.122;18.972;2023-03-31T06:51:11;97611.66;;;9.96;76.82
41040;BME280;48586;50.122;18.972;2023-03-31T06:53:17;97623.41;;;10.00;75.83
41040;BME280;48586;50.122;18.972;2023-03-31T06:55:23;97619.22;;;10.04;75.42
41040;BME280;48586;50.122;18.972;2023-03-31T06:57:28;97619.25;;;10.09;75.28
41040;BME280;48586;50.122;18.972;2023-03-31T06:59:34;97603.63;;;10.18;75.65
41040;BME280;48586;50.122;18.972;2023-03-31T07:01:40;97599.72;;;10.25;75.01
41040;BME280;48586;50.122;18.972;2023-03-31T07:03:47;97602.16;;;10.32;74.45
41040;BME280;48586;50.122;18.972;2023-03-31T07:05:54;97602.47;;;10.36;74.42
41040;BME280;48586;50.122;18.972;2023-03-31T07:08:04;97605.81;;;10.48;74.21
41040;BME280;48586;50.122;18.972;2023-03-31T07:10:10;97595.50;;;10.57;74.59
41040;BME280;48586;50.122;18.972;2023-03-31T07:12:15;97605.16;;;10.63;72.82
41040;BME280;48586;50.122;18.972;2023-03-31T07:14:21;97591.06;;;10.67;72.79
41040;BME280;48586;50.122;18.972;2023-03-31T07:16:27;97595.97;;;10.81;73.08
41040;BME280;48586;50.122;18.972;2023-03-31T07:18:31;97595.53;;;10.94;72.51
41040;BME280;48586;50.122;18.972;2023-03-31T07:20:38;97593.41;;;11.01;71.62
41040;BME280;48586;50.122;18.972;2023-03-31T07:22:45;97597.44;;;11.04;70.82
41040;BME280;48586;50.122;18.972;2023-03-31T07:24:53;97596.63;;;10.98;70.46
41040;BME280;48586;50.122;18.972;2023-03-31T07:26:58;97584.34;;;10.97;70.58
41040;BME280;48586;50.122;18.972;2023-03-31T07:29:03;97585.69;;;10.99;69.96
41040;BME280;48586;50.122;18.972;2023-03-31T07:31:12;97588.06;;;10.96;70.41
41040;BME280;48586;50.122;18.972;2023-03-31T07:33:18;97584.94;;;11.09;70.44
41040;BME280;48586;50.122;18.972;2023-03-31T07:35:22;97588.19;;;11.16;70.50
41040;BME280;48586;50.122;18.972;2023-03-31T07:37:27;97590.41;;;11.30;69.99
41040;BME280;48586;50.122;18.972;2023-03-31T07:39:34;97589.88;;;11.33;69.59
41040;BME280;48586;50.122;18.972;2023-03-31T07:41:42;97590.50;;;11.45;68.36
41040;BME280;48586;50.122;18.972;2023-03-31T07:43:48;97580.03;;;11.38;67.56
41040;BME280;48586;50.122;18.972;2023-03-31T07:45:54;97572.06;;;11.43;68.25
41040;BME280;48586;50.122;18.972;2023-03-31T07:47:58;97570.50;;;11.52;68.15
41040;BME280;48586;50.122;18.972;2023-03-31T07:50:04;97567.09;;;11.62;67.66
41040;BME280;48586;50.122;18.972;2023-03-31T07:52:10;97566.81;;;11.59;67.01
41040;BME280;48586;50.122;18.972;2023-03-31T07:54:15;97576.63;;;11.53;66.89
41040;BME280;48586;50.122;18.972;2023-03-31T07:56:20;97565.72;;;11.55;66.37
41040;BME280;48586;50.122;18.972;2023-03-31T07:58:30;97570.75;;;11.51;66.68
41040;BME280;48586;50.122;18.972;2023-03-31T08:00:35;97568.41;;;11.65;66.35
41040;BME280;48586;50.122;18.972;2023-03-31T08:02:40;97565.78;;;11.70;65.88
41040;BME280;48586;50.122;18.972;2023-03-31T08:04:47;97562.38;;;11.90;66.77
41040;BME280;48586;50.122;18.972;2023-03-31T08:06:52;97564.81;;;12.17;65.54
41040;BME280;48586;50.122;18.972;2023-03-31T08:08:57;97552.28;;;12.48;65.55
41040;BME280;48586;50.122;18.972;2023-03-31T08:11:04;97550.97;;;12.56;63.61
41040;BME280;48586;50.122;18.972;2023-03-31T08:13:09;97550.16;;;12.70;63.87
41040;BME280;48586;50.122;18.972;2023-03-31T08:15:17;97548.78;;;12.78;62.24
41040;BME280;48586;50.122;18.972;2023-03-31T08:17:23;97558.69;;;12.77;61.61
41040;BME280;48586;50.122;18.972;2023-03-31T08:19:28;97536.25;;;12.94;61.66
41040;BME280;48586;50.122;18.972;2023-03-31T08:21:32;97532.75;;;13.04;62.05
41040;BME280;48586;50.122;18.972;2023-03-31T08:25:11;97531.13;;;13.18;60.54
41040;BME280;48586;50.122;18.972;2023-03-31T08:27:18;97511.09;;;13.05;60.33
41040;BME280;48586;50.122;18.972;2023-03-31T08:29:23;97508.44;;;12.95;61.11
41040;BME280;48586;50.122;18.972;2023-03-31T08:31:27;97495.09;;;12.85;61.96
41040;BME280;48586;50.122;18.972;2023-03-31T08:33:33;97495.91;;;12.65;61.50
41040;BME280;48586;50.122;18.972;2023-03-31T08:35:37;97496.47;;;12.51;62.58
41040;BME280;48586;50.122;18.972;2023-03-31T08:37:41;97489.81;;;12.34;62.43
41040;BME280;48586;50.122;18.972;2023-03-31T08:39:47;97489.28;;;12.16;62.55
41040;BME280;48586;50.122;18.972;2023-03-31T08:42:00;97488.22;;;11.97;63.62
41040;BME280;48586;50.122;18.972;2023-03-31T08:44:11;97490.31;;;11.80;64.18
41040;BME280;48586;50.122;18.972;2023-03-31T08:46:21;97481.97;;;11.66;64.83
41040;BME280;48586;50.122;18.972;2023-03-31T08:48:29;97472.09;;;11.61;65.02
41040;BME280;48586;50.122;18.972;2023-03-31T08:50:41;97471.81;;;11.58;65.38
41040;BME280;48586;50.122;18.972;2023-03-31T08:52:55;97471.56;;;11.59;65.26
41040;BME280;48586;50.122;18.972;2023-03-31T08:55:05;97467.56;;;11.62;65.85
41040;BME280;48586;50.122;18.972;2023-03-31T08:57:18;97467.34;;;11.68;65.61
41040;BME280;48586;50.122;18.972;2023-03-31T08:59:29;97461.50;;;11.82;65.73
41040;BME280;48586;50.122;18.972;2023-03-31T09:01:43;97448.44;;;11.95;65.19
41040;BME280;48586;50.122;18.972;2023-03-31T09:04:07;97457.25;;;12.06;64.62
41040;BME280;48586;50.122;18.972;2023-03-31T09:06:25;97458.84;;;12.17;64.66
41040;BME280;48586;50.122;18.972;2023-03-31T09:08:35;97454.28;;;12.38;64.74
41040;BME280;48586;50.122;18.972;2023-03-31T09:10:49;97456.66;;;12.60;64.76
41040;BME280;48586;50.122;18.972;2023-03-31T09:13:13;97435.22;;;12.86;64.03
41040;BME280;48586;50.122;18.972;2023-03-31T09:15:26;97435.72;;;12.98;62.31
41040;BME280;48586;50.122;18.972;2023-03-31T09:17:36;97428.78;;;12.97;61.27
41040;BME280;48586;50.122;18.972;2023-03-31T09:19:49;97437.31;;;12.99;60.04
41040;BME280;48586;50.122;18.972;2023-03-31T09:21:55;97432.22;;;13.03;61.12
41040;BME280;48586;50.122;18.972;2023-03-31T09:24:07;97427.34;;;13.20;61.33
41040;BME280;48586;50.122;18.972;2023-03-31T09:26:25;97415.22;;;13.33;60.50
41040;BME280;48586;50.122;18.972;2023-03-31T09:28:38;97413.56;;;13.42;60.99
41040;BME280;48586;50.122;18.972;2023-03-31T09:30:43;97410.84;;;13.47;60.84
41040;BME280;48586;50.122;18.972;2023-03-31T09:32:57;97404.41;;;13.53;60.19
41040;BME280;48586;50.122;18.972;2023-03-31T09:35:17;97406.25;;;13.58;59.75
41040;BME280;48586;50.122;18.972;2023-03-31T09:37:26;97419.75;;;13.76;59.40
41040;BME280;48586;50.122;18.972;2023-03-31T09:39:31;97409.81;;;13.82;58.99
41040;BME280;48586;50.122;18.972;2023-03-31T09:41:36;97399.09;;;13.87;59.19
41040;BME280;48586;50.122;18.972;2023-03-31T09:43:45;97401.47;;;13.89;58.89
41040;BME280;48586;50.122;18.972;2023-03-31T09:45:53;97405.28;;;13.78;58.60
41040;BME280;48586;50.122;18.972;2023-03-31T09:48:01;97401.31;;;13.75;59.33
41040;BME280;48586;50.122;18.972;2023-03-31T09:50:09;97396.81;;;13.70;59.25
41040;BME280;48586;50.122;18.972;2023-03-31T09:52:26;97401.69;;;13.58;59.43
41040;BME280;48586;50.122;18.972;2023-03-31T09:54:40;97386.72;;;13.57;60.02
41040;BME280;48586;50.122;18.972;2023-03-31T09:56:49;97395.59;;;13.53;59.91
41040;BME280;48586;50.122;18.972;2023-03-31T09:59:00;97386.28;;;13.45;59.65
41040;BME280;48586;50.122;18.972;2023-03-31T10:01:07;97389.75;;;13.45;59.22
41040;BME280;48586;50.122;18.972;2023-03-31T10:03:13;97383.06;;;13.48;59.16
41040;BME280;48586;50.122;18.972;2023-03-31T10:05:30;97389.00;;;13.40;59.28
41040;BME280;48586;50.122;18.972;2023-03-31T10:07:37;97393.34;;;13.25;59.67
41040;BME280;48586;50.122;18.972;2023-03-31T10:09:42;97384.88;;;13.13;60.02
41040;BME280;48586;50.122;18.972;2023-03-31T10:11:55;97391.84;;;13.04;60.32
41040;BME280;48586;50.122;18.972;2023-03-31T10:14:09;97393.44;;;13.10;60.22
41040;BME280;48586;50.122;18.972;2023-03-31T10:16:22;97370.41;;;13.14;60.22
41040;BME280;48586;50.122;18.972;2023-03-31T10:18:33;97376.81;;;13.18;60.44
41040;BME280;48586;50.122;18.972;2023-03-31T10:20:43;97368.25;;;13.16;61.04
41040;BME280;48586;50.122;18.972;2023-03-31T10:22:49;97366.16;;;13.13;61.13
41040;BME280;48586;50.122;18.972;2023-03-31T10:25:08;97358.44;;;13.07;61.15
41040;BME280;48586;50.122;18.972;2023-03-31T10:27:20;97370.00;;;12.92;60.82
41040;BME280;48586;50.122;18.972;2023-03-31T10:29:31;97360.09;;;12.97;61.35
41040;BME280;48586;50.122;18.972;2023-03-31T10:31:38;97364.81;;;13.11;62.14
41040;BME280;48586;50.122;18.972;2023-03-31T10:33:47;97359.41;;;13.21;61.82
41040;BME280;48586;50.122;18.972;2023-03-31T10:35:56;97367.69;;;13.24;61.03
41040;BME280;48586;50.122;18.972;2023-03-31T10:38:06;97355.44;;;13.18;61.03
41040;BME280;48586;50.122;18.972;2023-03-31T10:40:17;97372.31;;;13.09;61.51
41040;BME280;48586;50.122;18.972;2023-03-31T10:42:24;97340.00;;;13.00;61.20
41040;BME280;48586;50.122;18.972;2023-03-31T10:44:34;97348.91;;;12.80;61.23
41040;BME280;48586;50.122;18.972;2023-03-31T10:46:45;97346.25;;;12.75;61.85
41040;BME280;48586;50.122;18.972;2023-03-31T10:48:50;97351.91;;;12.68;62.09
41040;BME280;48586;50.122;18.972;2023-03-31T10:50:59;97346.00;;;12.71;62.87
41040;BME280;48586;50.122;18.972;2023-03-31T10:53:10;97343.38;;;12.66;62.59
41040;BME280;48586;50.122;18.972;2023-03-31T10:55:22;97337.44;;;12.69;62.75
41040;BME280;48586;50.122;18.972;2023-03-31T10:57:42;97335.03;;;12.73;62.42
41040;BME280;48586;50.122;18.972;2023-03-31T11:00:07;97326.19;;;12.77;62.74
41040;BME280;48586;50.122;18.972;2023-03-31T11:02:38;97326.44;;;12.81;62.54
41040;BME280;48586;50.122;18.972;2023-03-31T11:04:59;97317.63;;;12.81;62.63
41040;BME280;48586;50.122;18.972;2023-03-31T11:07:25;97312.28;;;12.86;62.45
41040;BME280;48586;50.122;18.972;2023-03-31T11:09:42;97318.19;;;12.88;62.67
41040;BME280;48586;50.122;18.972;2023-03-31T11:12:01;97318.69;;;12.90;62.59
41040;BME280;48586;50.122;18.972;2023-03-31T11:14:21;97307.72;;;12.91;62.23
41040;BME280;48586;50.122;18.972;2023-03-31T11:16:38;97302.06;;;12.98;62.12
41040;BME280;48586;50.122;18.972;2023-03-31T11:19:03;97310.06;;;13.03;61.94
41040;BME280;48586;50.122;18.972;2023-03-31T11:21:20;97306.00;;;13.11;61.36
41040;BME280;48586;50.122;18.972;2023-03-31T11:23:38;97299.31;;;13.13;60.97
41040;BME280;48586;50.122;18.972;2023-03-31T11:25:55;97293.59;;;13.25;60.97
41040;BME280;48586;50.122;18.972;2023-03-31T11:28:20;97288.59;;;13.47;61.31
41040;BME280;48586;50.122;18.972;2023-03-31T11:30:32;97285.00;;;13.62;59.38
41040;BME280;48586;50.122;18.972;2023-03-31T11:33:01;97287.50;;;13.83;57.76
41040;BME280;48586;50.122;18.972;2023-03-31T11:35:27;97278.03;;;13.90;57.29
41040;BME280;48586;50.122;18.972;2023-03-31T11:37:58;97282.06;;;13.93;56.87
41040;BME280;48586;50.122;18.972;2023-03-31T11:40:29;97264.31;;;14.02;56.03
41040;BME280;48586;50.122;18.972;2023-03-31T11:42:50;97261.28;;;14.09;56.06